sensor_id;sensor_type;location;lat;lon;timestamp;temperature;humidity
58363;DHT22;54977;51.510;7.522;2022-07-29T00:04:55;19.00;41.20
58363;DHT22;54977;51.510;7.522;2022-07-29T00:09:57;19.00;41.20
58363;DHT22;54977;51.510;7.522;2022-07-29T00:14:59;19.00;41.20
58363;DHT22;54977;51.510;7.522;2022-07-29T00:20:03;19.00;41.70
58363;DHT22;54977;51.510;7.522;2022-07-29T00:25:06;18.90;41.50
58363;DHT22;54977;51.510;7.522;2022-07-29T00:30:08;18.80;41.60
58363;DHT22;54977;51.510;7.522;2022-07-29T00:35:11;18.70;41.90
58363;DHT22;54977;51.510;7.522;2022-07-29T00:40:31;18.70;42.20
58363;DHT22;54977;51.510;7.522;2022-07-29T00:45:33;18.60;42.20
58363;DHT22;54977;51.510;7.522;2022-07-29T00:50:37;18.60;42.60
58363;DHT22;54977;51.510;7.522;2022-07-29T00:55:39;18.70;42.30
58363;DHT22;54977;51.510;7.522;2022-07-29T01:00:41;18.50;42.60
58363;DHT22;54977;51.510;7.522;2022-07-29T01:05:45;18.50;42.60
58363;DHT22;54977;51.510;7.522;2022-07-29T01:10:47;18.50;42.60
58363;DHT22;54977;51.510;7.522;2022-07-29T01:15:54;18.60;42.70
58363;DHT22;54977;51.510;7.522;2022-07-29T01:21:32;18.50;42.80
58363;DHT22;54977;51.510;7.522;2022-07-29T01:26:43;18.40;43.10
58363;DHT22;54977;51.510;7.522;2022-07-29T01:31:59;18.30;43.50
58363;DHT22;54977;51.510;7.522;2022-07-29T01:37:08;18.20;43.60
58363;DHT22;54977;51.510;7.522;2022-07-29T01:42:15;18.20;44.00
58363;DHT22;54977;51.510;7.522;2022-07-29T01:47:26;18.10;44.10
58363;DHT22;54977;51.510;7.522;2022-07-29T01:52:34;18.10;44.60
58363;DHT22;54977;51.510;7.522;2022-07-29T01:57:39;18.10;44.70
58363;DHT22;54977;51.510;7.522;2022-07-29T02:02:47;18.00;44.80
58363;DHT22;54977;51.510;7.522;2022-07-29T02:07:51;18.00;44.90
58363;DHT22;54977;51.510;7.522;2022-07-29T02:12:54;17.90;45.00
58363;DHT22;54977;51.510;7.522;2022-07-29T02:18:02;17.70;45.30
58363;DHT22;54977;51.510;7.522;2022-07-29T02:23:04;17.70;45.40
58363;DHT22;54977;51.510;7.522;2022-07-29T02:28:07;17.50;45.90
58363;DHT22;54977;51.510;7.522;2022-07-29T02:33:14;17.50;46.50
58363;DHT22;54977;51.510;7.522;2022-07-29T02:38:18;17.40;46.70
58363;DHT22;54977;51.510;7.522;2022-07-29T02:43:39;17.30;46.70
58363;DHT22;54977;51.510;7.522;2022-07-29T02:48:47;17.30;47.00
58363;DHT22;54977;51.510;7.522;2022-07-29T02:53:53;17.30;47.40
58363;DHT22;54977;51.510;7.522;2022-07-29T02:58:58;17.10;47.60
58363;DHT22;54977;51.510;7.522;2022-07-29T03:04:04;17.20;47.50
58363;DHT22;54977;51.510;7.522;2022-07-29T03:09:07;17.20;47.70
58363;DHT22;54977;51.510;7.522;2022-07-29T03:14:09;17.10;47.70
58363;DHT22;54977;51.510;7.522;2022-07-29T03:19:13;17.10;47.80
58363;DHT22;54977;51.510;7.522;2022-07-29T03:24:25;17.10;48.10
58363;DHT22;54977;51.510;7.522;2022-07-29T03:29:27;17.00;48.10
58363;DHT22;54977;51.510;7.522;2022-07-29T03:34:31;17.00;48.30
58363;DHT22;54977;51.510;7.522;2022-07-29T03:39:36;17.00;48.60
58363;DHT22;54977;51.510;7.522;2022-07-29T03:44:42;16.90;48.70
58363;DHT22;54977;51.510;7.522;2022-07-29T03:49:49;17.00;48.90
58363;DHT22;54977;51.510;7.522;2022-07-29T03:54:52;17.00;48.90
58363;DHT22;54977;51.510;7.522;2022-07-29T03:59:55;16.90;49.00
58363;DHT22;54977;51.510;7.522;2022-07-29T04:04:58;16.90;49.10
58363;DHT22;54977;51.510;7.522;2022-07-29T04:10:00;16.90;49.20
58363;DHT22;54977;51.510;7.522;2022-07-29T04:15:02;17.00;48.90
58363;DHT22;54977;51.510;7.522;2022-07-29T04:20:06;17.10;48.90
58363;DHT22;54977;51.510;7.522;2022-07-29T04:25:08;17.10;48.90
58363;DHT22;54977;51.510;7.522;2022-07-29T04:30:11;17.10;48.90
58363;DHT22;54977;51.510;7.522;2022-07-29T04:35:14;17.30;48.70
58363;DHT22;54977;51.510;7.522;2022-07-29T04:40:16;17.40;49.00
58363;DHT22;54977;51.510;7.522;2022-07-29T04:45:18;17.50;48.70
58363;DHT22;54977;51.510;7.522;2022-07-29T04:50:21;17.40;48.60
58363;DHT22;54977;51.510;7.522;2022-07-29T04:55:23;17.60;48.90
58363;DHT22;54977;51.510;7.522;2022-07-29T05:00:25;17.40;47.90
58363;DHT22;54977;51.510;7.522;2022-07-29T05:05:28;17.60;47.60
58363;DHT22;54977;51.510;7.522;2022-07-29T05:10:30;17.60;47.70
58363;DHT22;54977;51.510;7.522;2022-07-29T05:15:34;17.70;47.00
58363;DHT22;54977;51.510;7.522;2022-07-29T05:20:37;17.80;47.10
58363;DHT22;54977;51.510;7.522;2022-07-29T05:25:39;17.80;47.10
58363;DHT22;54977;51.510;7.522;2022-07-29T05:30:41;17.80;46.90
58363;DHT22;54977;51.510;7.522;2022-07-29T05:35:46;17.80;47.30
58363;DHT22;54977;51.510;7.522;2022-07-29T05:40:47;17.80;46.60
58363;DHT22;54977;51.510;7.522;2022-07-29T05:45:49;17.90;46.80
58363;DHT22;54977;51.510;7.522;2022-07-29T05:50:53;18.00;46.60
58363;DHT22;54977;51.510;7.522;2022-07-29T05:55:55;17.90;46.40
58363;DHT22;54977;51.510;7.522;2022-07-29T06:00:57;17.90;46.70
58363;DHT22;54977;51.510;7.522;2022-07-29T06:06:01;18.20;46.40
58363;DHT22;54977;51.510;7.522;2022-07-29T06:11:03;18.70;46.00
58363;DHT22;54977;51.510;7.522;2022-07-29T06:16:05;19.20;45.00
58363;DHT22;54977;51.510;7.522;2022-07-29T06:21:09;19.50;43.70
58363;DHT22;54977;51.510;7.522;2022-07-29T06:26:11;19.00;44.20
58363;DHT22;54977;51.510;7.522;2022-07-29T06:31:13;18.70;44.20
58363;DHT22;54977;51.510;7.522;2022-07-29T06:36:16;19.00;44.10
58363;DHT22;54977;51.510;7.522;2022-07-29T06:41:18;19.20;43.30
58363;DHT22;54977;51.510;7.522;2022-07-29T06:46:21;19.00;44.90
58363;DHT22;54977;51.510;7.522;2022-07-29T06:51:24;19.30;44.40
58363;DHT22;54977;51.510;7.522;2022-07-29T06:56:28;19.50;44.00
58363;DHT22;54977;51.510;7.522;2022-07-29T07:01:29;20.10;42.60
58363;DHT22;54977;51.510;7.522;2022-07-29T07:06:33;20.20;41.60
58363;DHT22;54977;51.510;7.522;2022-07-29T07:11:35;21.10;41.10
58363;DHT22;54977;51.510;7.522;2022-07-29T07:16:37;21.00;41.20
58363;DHT22;54977;51.510;7.522;2022-07-29T07:21:40;21.00;40.90
58363;DHT22;54977;51.510;7.522;2022-07-29T07:26:42;21.40;40.40
58363;DHT22;54977;51.510;7.522;2022-07-29T07:31:44;21.80;39.50
58363;DHT22;54977;51.510;7.522;2022-07-29T07:36:47;21.30;39.50
58363;DHT22;54977;51.510;7.522;2022-07-29T07:41:49;22.00;39.60
58363;DHT22;54977;51.510;7.522;2022-07-29T07:46:51;22.90;37.90
58363;DHT22;54977;51.510;7.522;2022-07-29T07:51:54;24.30;35.60
58363;DHT22;54977;51.510;7.522;2022-07-29T07:56:56;25.40;34.50
58363;DHT22;54977;51.510;7.522;2022-07-29T08:01:58;25.30;34.00
58363;DHT22;54977;51.510;7.522;2022-07-29T08:07:02;25.00;34.70
58363;DHT22;54977;51.510;7.522;2022-07-29T08:12:05;25.00;35.00
58363;DHT22;54977;51.510;7.522;2022-07-29T08:17:07;25.10;35.10
58363;DHT22;54977;51.510;7.522;2022-07-29T08:22:10;24.00;34.60
58363;DHT22;54977;51.510;7.522;2022-07-29T08:27:13;24.30;35.00
58363;DHT22;54977;51.510;7.522;2022-07-29T08:32:15;23.60;36.50
58363;DHT22;54977;51.510;7.522;2022-07-29T08:37:18;24.80;35.80
58363;DHT22;54977;51.510;7.522;2022-07-29T08:42:20;25.50;34.60
58363;DHT22;54977;51.510;7.522;2022-07-29T08:47:21;26.00;32.90
58363;DHT22;54977;51.510;7.522;2022-07-29T08:52:25;26.30;32.60
58363;DHT22;54977;51.510;7.522;2022-07-29T08:57:28;26.40;32.50
58363;DHT22;54977;51.510;7.522;2022-07-29T09:02:35;26.90;31.70
58363;DHT22;54977;51.510;7.522;2022-07-29T09:07:39;27.20;31.20
58363;DHT22;54977;51.510;7.522;2022-07-29T09:12:42;27.40;31.50
58363;DHT22;54977;51.510;7.522;2022-07-29T09:17:45;27.80;30.00
58363;DHT22;54977;51.510;7.522;2022-07-29T09:22:50;26.90;31.00
58363;DHT22;54977;51.510;7.522;2022-07-29T09:27:53;26.80;31.40
58363;DHT22;54977;51.510;7.522;2022-07-29T09:32:57;26.80;31.00
58363;DHT22;54977;51.510;7.522;2022-07-29T09:38:11;26.90;31.70
58363;DHT22;54977;51.510;7.522;2022-07-29T09:43:13;26.70;31.50
58363;DHT22;54977;51.510;7.522;2022-07-29T09:48:17;26.60;33.20
58363;DHT22;54977;51.510;7.522;2022-07-29T09:53:34;26.20;31.90
58363;DHT22;54977;51.510;7.522;2022-07-29T09:58:36;26.00;34.60
58363;DHT22;54977;51.510;7.522;2022-07-29T10:03:50;26.00;36.30
58363;DHT22;54977;51.510;7.522;2022-07-29T10:08:54;26.50;36.10
58363;DHT22;54977;51.510;7.522;2022-07-29T10:13:56;26.40;35.30
58363;DHT22;54977;51.510;7.522;2022-07-29T10:18:58;25.60;36.00
58363;DHT22;54977;51.510;7.522;2022-07-29T10:24:02;25.10;36.90
58363;DHT22;54977;51.510;7.522;2022-07-29T10:29:03;23.80;38.80
58363;DHT22;54977;51.510;7.522;2022-07-29T10:34:13;23.50;40.40
58363;DHT22;54977;51.510;7.522;2022-07-29T10:39:30;23.30;41.00
58363;DHT22;54977;51.510;7.522;2022-07-29T10:44:34;23.10;42.00
58363;DHT22;54977;51.510;7.522;2022-07-29T10:49:36;22.90;42.60
58363;DHT22;54977;51.510;7.522;2022-07-29T10:54:47;22.50;43.70
58363;DHT22;54977;51.510;7.522;2022-07-29T11:05:10;21.90;45.00
58363;DHT22;54977;51.510;7.522;2022-07-29T11:10:22;21.80;45.30
58363;DHT22;54977;51.510;7.522;2022-07-29T11:15:24;21.80;44.70
58363;DHT22;54977;51.510;7.522;2022-07-29T11:20:37;21.80;44.20
58363;DHT22;54977;51.510;7.522;2022-07-29T11:25:40;21.90;44.60
58363;DHT22;54977;51.510;7.522;2022-07-29T11:30:49;22.00;44.10
58363;DHT22;54977;51.510;7.522;2022-07-29T11:36:09;22.00;44.30
58363;DHT22;54977;51.510;7.522;2022-07-29T11:41:25;22.40;44.30
58363;DHT22;54977;51.510;7.522;2022-07-29T11:46:43;23.00;42.40
58363;DHT22;54977;51.510;7.522;2022-07-29T11:51:50;23.50;41.30
58363;DHT22;54977;51.510;7.522;2022-07-29T11:56:53;23.70;41.00
58363;DHT22;54977;51.510;7.522;2022-07-29T12:01:57;23.70;41.00
58363;DHT22;54977;51.510;7.522;2022-07-29T12:06:59;23.60;40.80
58363;DHT22;54977;51.510;7.522;2022-07-29T12:12:02;23.30;41.40
58363;DHT22;54977;51.510;7.522;2022-07-29T12:17:04;22.70;42.80
58363;DHT22;54977;51.510;7.522;2022-07-29T12:22:06;21.70;43.70
58363;DHT22;54977;51.510;7.522;2022-07-29T12:27:09;21.50;45.60
58363;DHT22;54977;51.510;7.522;2022-07-29T12:32:11;21.30;45.60
58363;DHT22;54977;51.510;7.522;2022-07-29T12:37:13;21.40;46.60
58363;DHT22;54977;51.510;7.522;2022-07-29T12:42:16;21.80;45.10
58363;DHT22;54977;51.510;7.522;2022-07-29T12:47:19;21.10;45.90
58363;DHT22;54977;51.510;7.522;2022-07-29T12:52:29;21.30;47.80
58363;DHT22;54977;51.510;7.522;2022-07-29T12:57:44;22.20;46.00
58363;DHT22;54977;51.510;7.522;2022-07-29T13:02:54;22.80;44.30
58363;DHT22;54977;51.510;7.522;2022-07-29T13:08:10;23.10;43.70
58363;DHT22;54977;51.510;7.522;2022-07-29T13:13:14;23.60;42.90
58363;DHT22;54977;51.510;7.522;2022-07-29T13:18:29;23.20;42.90
58363;DHT22;54977;51.510;7.522;2022-07-29T13:23:31;23.20;42.30
58363;DHT22;54977;51.510;7.522;2022-07-29T13:28:35;23.00;43.30
58363;DHT22;54977;51.510;7.522;2022-07-29T13:33:37;22.60;43.70
58363;DHT22;54977;51.510;7.522;2022-07-29T13:38:39;22.60;46.80
58363;DHT22;54977;51.510;7.522;2022-07-29T13:43:42;22.90;46.70
58363;DHT22;54977;51.510;7.522;2022-07-29T13:48:44;23.00;44.90
58363;DHT22;54977;51.510;7.522;2022-07-29T13:53:45;23.90;44.50
58363;DHT22;54977;51.510;7.522;2022-07-29T13:58:51;25.80;39.70
58363;DHT22;54977;51.510;7.522;2022-07-29T14:03:53;27.20;38.60
58363;DHT22;54977;51.510;7.522;2022-07-29T14:08:55;27.10;37.10
58363;DHT22;54977;51.510;7.522;2022-07-29T14:13:58;26.80;36.60
58363;DHT22;54977;51.510;7.522;2022-07-29T14:19:00;27.20;38.40
58363;DHT22;54977;51.510;7.522;2022-07-29T14:24:02;26.90;36.80
58363;DHT22;54977;51.510;7.522;2022-07-29T14:29:06;27.10;36.80
58363;DHT22;54977;51.510;7.522;2022-07-29T14:34:07;26.90;36.30
58363;DHT22;54977;51.510;7.522;2022-07-29T14:39:09;27.10;36.80
58363;DHT22;54977;51.510;7.522;2022-07-29T14:44:12;28.50;34.90
58363;DHT22;54977;51.510;7.522;2022-07-29T14:49:14;28.00;33.60
58363;DHT22;54977;51.510;7.522;2022-07-29T14:54:16;28.10;34.60
58363;DHT22;54977;51.510;7.522;2022-07-29T14:59:20;28.30;34.00
58363;DHT22;54977;51.510;7.522;2022-07-29T15:04:22;28.90;33.00
58363;DHT22;54977;51.510;7.522;2022-07-29T15:09:24;28.70;32.50
58363;DHT22;54977;51.510;7.522;2022-07-29T15:14:27;28.90;32.90
58363;DHT22;54977;51.510;7.522;2022-07-29T15:19:29;29.50;31.20
58363;DHT22;54977;51.510;7.522;2022-07-29T15:24:31;30.60;31.50
58363;DHT22;54977;51.510;7.522;2022-07-29T15:29:34;28.50;31.60
58363;DHT22;54977;51.510;7.522;2022-07-29T15:34:37;28.10;33.50
58363;DHT22;54977;51.510;7.522;2022-07-29T15:39:39;27.50;34.20
58363;DHT22;54977;51.510;7.522;2022-07-29T15:44:42;28.20;34.20
58363;DHT22;54977;51.510;7.522;2022-07-29T15:49:44;28.70;34.40
58363;DHT22;54977;51.510;7.522;2022-07-29T15:54:46;27.90;35.10
58363;DHT22;54977;51.510;7.522;2022-07-29T15:59:49;27.10;36.50
58363;DHT22;54977;51.510;7.522;2022-07-29T16:04:51;26.70;37.10
58363;DHT22;54977;51.510;7.522;2022-07-29T16:09:53;26.60;36.70
58363;DHT22;54977;51.510;7.522;2022-07-29T16:14:56;27.40;35.40
58363;DHT22;54977;51.510;7.522;2022-07-29T16:19:58;27.40;35.30
58363;DHT22;54977;51.510;7.522;2022-07-29T16:25:00;27.30;34.60
58363;DHT22;54977;51.510;7.522;2022-07-29T16:30:04;27.20;35.30
58363;DHT22;54977;51.510;7.522;2022-07-29T16:35:07;27.20;35.80
58363;DHT22;54977;51.510;7.522;2022-07-29T16:40:09;28.00;35.80
58363;DHT22;54977;51.510;7.522;2022-07-29T16:45:13;27.70;33.40
58363;DHT22;54977;51.510;7.522;2022-07-29T16:50:14;28.10;34.90
58363;DHT22;54977;51.510;7.522;2022-07-29T16:55:16;28.80;33.80
58363;DHT22;54977;51.510;7.522;2022-07-29T17:00:20;27.20;33.80
58363;DHT22;54977;51.510;7.522;2022-07-29T17:05:23;26.50;35.50
58363;DHT22;54977;51.510;7.522;2022-07-29T17:10:25;26.00;37.10
58363;DHT22;54977;51.510;7.522;2022-07-29T17:15:29;25.90;37.20
58363;DHT22;54977;51.510;7.522;2022-07-29T17:20:31;25.30;39.00
58363;DHT22;54977;51.510;7.522;2022-07-29T17:25:36;25.70;37.40
58363;DHT22;54977;51.510;7.522;2022-07-29T17:30:39;25.70;37.40
58363;DHT22;54977;51.510;7.522;2022-07-29T17:35:41;25.30;37.90
58363;DHT22;54977;51.510;7.522;2022-07-29T17:41:00;25.00;38.80
58363;DHT22;54977;51.510;7.522;2022-07-29T17:46:03;25.00;39.00
58363;DHT22;54977;51.510;7.522;2022-07-29T17:51:07;25.10;38.90
58363;DHT22;54977;51.510;7.522;2022-07-29T17:56:09;25.10;39.80
58363;DHT22;54977;51.510;7.522;2022-07-29T18:01:13;25.00;39.30
58363;DHT22;54977;51.510;7.522;2022-07-29T18:06:15;24.90;39.60
58363;DHT22;54977;51.510;7.522;2022-07-29T18:11:16;24.70;39.30
58363;DHT22;54977;51.510;7.522;2022-07-29T18:16:19;24.70;39.20
58363;DHT22;54977;51.510;7.522;2022-07-29T18:21:21;24.60;38.70
58363;DHT22;54977;51.510;7.522;2022-07-29T18:26:23;24.80;39.00
58363;DHT22;54977;51.510;7.522;2022-07-29T18:31:26;24.70;38.90
58363;DHT22;54977;51.510;7.522;2022-07-29T18:36:28;24.70;38.80
58363;DHT22;54977;51.510;7.522;2022-07-29T18:41:30;24.60;39.10
58363;DHT22;54977;51.510;7.522;2022-07-29T18:46:34;24.40;38.60
58363;DHT22;54977;51.510;7.522;2022-07-29T18:51:36;24.10;38.90
58363;DHT22;54977;51.510;7.522;2022-07-29T18:56:38;23.90;37.90
58363;DHT22;54977;51.510;7.522;2022-07-29T19:01:41;23.60;38.70
58363;DHT22;54977;51.510;7.522;2022-07-29T19:06:43;23.30;39.20
58363;DHT22;54977;51.510;7.522;2022-07-29T19:11:45;23.00;39.70
58363;DHT22;54977;51.510;7.522;2022-07-29T19:16:49;22.80;40.40
58363;DHT22;54977;51.510;7.522;2022-07-29T19:21:51;22.60;40.70
58363;DHT22;54977;51.510;7.522;2022-07-29T19:26:53;22.40;41.20
58363;DHT22;54977;51.510;7.522;2022-07-29T19:31:56;22.20;41.70
58363;DHT22;54977;51.510;7.522;2022-07-29T19:36:59;22.00;42.20
58363;DHT22;54977;51.510;7.522;2022-07-29T19:42:01;21.90;42.60
58363;DHT22;54977;51.510;7.522;2022-07-29T19:47:05;21.80;43.00
58363;DHT22;54977;51.510;7.522;2022-07-29T19:52:07;21.70;43.10
58363;DHT22;54977;51.510;7.522;2022-07-29T19:57:09;21.70;43.60
58363;DHT22;54977;51.510;7.522;2022-07-29T20:02:12;21.50;43.90
58363;DHT22;54977;51.510;7.522;2022-07-29T20:07:14;21.40;45.00
58363;DHT22;54977;51.510;7.522;2022-07-29T20:12:16;21.30;44.60
58363;DHT22;54977;51.510;7.522;2022-07-29T20:17:19;21.30;45.00
58363;DHT22;54977;51.510;7.522;2022-07-29T20:22:22;21.10;45.20
58363;DHT22;54977;51.510;7.522;2022-07-29T20:27:23;21.00;45.60
58363;DHT22;54977;51.510;7.522;2022-07-29T20:32:27;20.90;46.00
58363;DHT22;54977;51.510;7.522;2022-07-29T20:37:29;20.70;46.50
58363;DHT22;54977;51.510;7.522;2022-07-29T20:42:31;20.50;47.60
58363;DHT22;54977;51.510;7.522;2022-07-29T20:47:35;20.40;48.70
58363;DHT22;54977;51.510;7.522;2022-07-29T20:52:37;20.30;48.60
58363;DHT22;54977;51.510;7.522;2022-07-29T20:57:40;20.10;49.00
58363;DHT22;54977;51.510;7.522;2022-07-29T21:02:43;19.90;49.40
58363;DHT22;54977;51.510;7.522;2022-07-29T21:07:46;19.90;49.80
58363;DHT22;54977;51.510;7.522;2022-07-29T21:12:48;19.70;50.40
58363;DHT22;54977;51.510;7.522;2022-07-29T21:17:51;19.60;51.40
58363;DHT22;54977;51.510;7.522;2022-07-29T21:23:00;19.40;51.40
58363;DHT22;54977;51.510;7.522;2022-07-29T21:28:01;19.40;51.30
58363;DHT22;54977;51.510;7.522;2022-07-29T21:33:22;19.30;51.50
58363;DHT22;54977;51.510;7.522;2022-07-29T21:38:24;19.30;51.70
58363;DHT22;54977;51.510;7.522;2022-07-29T21:43:26;19.30;52.30
58363;DHT22;54977;51.510;7.522;2022-07-29T21:48:30;19.40;52.30
58363;DHT22;54977;51.510;7.522;2022-07-29T21:53:32;19.40;52.30
58363;DHT22;54977;51.510;7.522;2022-07-29T21:58:33;19.40;52.10
58363;DHT22;54977;51.510;7.522;2022-07-29T22:03:37;19.40;52.60
58363;DHT22;54977;51.510;7.522;2022-07-29T22:08:39;19.30;53.00
58363;DHT22;54977;51.510;7.522;2022-07-29T22:13:41;19.20;52.80
58363;DHT22;54977;51.510;7.522;2022-07-29T22:18:44;19.10;52.80
58363;DHT22;54977;51.510;7.522;2022-07-29T22:23:47;19.20;53.20
58363;DHT22;54977;51.510;7.522;2022-07-29T22:28:49;19.20;53.20
58363;DHT22;54977;51.510;7.522;2022-07-29T22:33:52;19.10;53.50
58363;DHT22;54977;51.510;7.522;2022-07-29T22:38:54;19.20;53.70
58363;DHT22;54977;51.510;7.522;2022-07-29T22:43:56;19.30;53.90
58363;DHT22;54977;51.510;7.522;2022-07-29T22:48:59;19.30;54.00
58363;DHT22;54977;51.510;7.522;2022-07-29T22:54:02;19.30;54.00
58363;DHT22;54977;51.510;7.522;2022-07-29T22:59:04;19.40;53.80
58363;DHT22;54977;51.510;7.522;2022-07-29T23:04:07;19.40;53.70
58363;DHT22;54977;51.510;7.522;2022-07-29T23:09:09;19.40;53.50
58363;DHT22;54977;51.510;7.522;2022-07-29T23:14:11;19.50;53.70
58363;DHT22;54977;51.510;7.522;2022-07-29T23:19:14;19.50;53.80
58363;DHT22;54977;51.510;7.522;2022-07-29T23:24:16;19.50;53.90
58363;DHT22;54977;51.510;7.522;2022-07-29T23:29:18;19.50;54.10
58363;DHT22;54977;51.510;7.522;2022-07-29T23:34:21;19.50;54.30
58363;DHT22;54977;51.510;7.522;2022-07-29T23:39:23;19.50;54.30
58363;DHT22;54977;51.510;7.522;2022-07-29T23:44:25;19.40;54.40
58363;DHT22;54977;51.510;7.522;2022-07-29T23:49:28;19.40;54.20
58363;DHT22;54977;51.510;7.522;2022-07-29T23:54:30;19.30;54.40
58363;DHT22;54977;51.510;7.522;2022-07-29T23:59:32;19.20;54.30
